Time;durP1;ratioP1;P1;durP2;ratioP2;P2;SDS_P1;SDS_P2;PMS_P1;PMS_P2;Temp;Humidity;BMP_temperature;BMP_pressure;BME280_temperature;BME280_humidity;BME280_pressure;Samples;Min_cycle;Max_cycle;Signal;HPM_P1;HPM_P2
2023/01/10 00:01:55;;;;;;;1.83;0.83;;;8.30;56.40;;;;;;20698;6853;117700;-74
2023/01/10 00:04:19;;;;;;;2.40;1.50;;;8.10;56.50;;;;;;20463;6853;307969;-74
2023/01/10 00:06:45;;;;;;;1.10;1.00;;;8.20;56.70;;;;;;20702;6853;117084;-74
2023/01/10 00:09:11;;;;;;;1.30;1.20;;;8.00;56.90;;;;;;20491;6853;308843;-74
2023/01/10 00:14:22;;;;;;;1.07;1.00;;;8.30;56.60;;;;;;20462;6853;324148;-74
2023/01/10 00:16:47;;;;;;;2.07;1.20;;;8.50;56.20;;;;;;20481;6853;308524;-74
2023/01/10 00:19:13;;;;;;;2.12;1.30;;;8.60;56.00;;;;;;20475;6854;304941;-74
2023/01/10 00:21:38;;;;;;;1.00;1.00;;;8.70;55.80;;;;;;20688;6854;119904;-74
2023/01/10 00:24:17;;;;;;;1.10;1.00;;;8.50;56.10;;;;;;20463;6854;279863;-74
2023/01/10 00:26:44;;;;;;;1.37;1.10;;;8.50;56.40;;;;;;20480;6854;279345;-74
2023/01/10 00:29:09;;;;;;;1.40;1.30;;;8.60;55.90;;;;;;20691;6854;120260;-74
2023/01/10 00:31:34;;;;;;;1.10;1.10;;;8.40;56.10;;;;;;20478;6854;308587;-74
2023/01/10 00:34:00;;;;;;;1.43;1.13;;;8.40;56.30;;;;;;20674;6854;127529;-75
2023/01/10 00:36:25;;;;;;;1.80;1.10;;;8.20;56.60;;;;;;20481;6854;278990;-74
2023/01/10 00:38:51;;;;;;;1.33;1.20;;;8.20;56.90;;;;;;20479;6854;302201;-74
2023/01/10 00:44:02;;;;;;;1.35;0.98;;;8.50;56.40;;;;;;20464;6854;308532;-74
2023/01/10 00:46:27;;;;;;;1.10;1.10;;;8.70;56.10;;;;;;20476;6854;337720;-74
2023/01/10 00:48:53;;;;;;;2.00;1.08;;;8.70;55.90;;;;;;20486;6854;311793;-74
2023/01/10 00:51:18;;;;;;;1.03;1.03;;;8.80;55.60;;;;;;20474;6852;312551;-74
2023/01/10 00:53:44;;;;;;;1.50;0.90;;;8.80;55.30;;;;;;20694;6853;117772;-74
2023/01/10 00:56:10;;;;;;;0.73;0.73;;;8.50;55.70;;;;;;20676;6853;118722;-74
2023/01/10 00:58:37;;;;;;;0.67;0.67;;;8.10;56.60;;;;;;20696;6853;117791;-74
2023/01/10 01:01:02;;;;;;;1.87;1.00;;;7.70;57.50;;;;;;20486;6853;307636;-74
2023/01/10 01:03:28;;;;;;;0.60;0.60;;;7.70;57.90;;;;;;20704;6853;118394;-74
2023/01/10 01:05:53;;;;;;;0.70;0.70;;;7.70;58.10;;;;;;20697;6853;117621;-74
2023/01/10 01:08:19;;;;;;;0.90;0.70;;;7.40;58.60;;;;;;20683;6853;118402;-74
2023/01/10 01:10:45;;;;;;;1.05;0.90;;;7.20;59.10;;;;;;20486;6853;338509;-74
2023/01/10 01:13:13;;;;;;;0.70;0.70;;;7.40;59.40;;;;;;20694;6853;117452;-74
2023/01/10 01:15:39;;;;;;;0.83;0.80;;;7.40;59.30;;;;;;20683;6853;123284;-74
2023/01/10 01:18:04;;;;;;;1.27;0.93;;;7.20;59.70;;;;;;20659;6853;117649;-74
2023/01/10 01:20:30;;;;;;;1.12;0.50;;;7.10;60.20;;;;;;20689;6853;119683;-74
2023/01/10 01:22:57;;;;;;;0.83;0.80;;;6.90;60.60;;;;;;20692;6853;117586;-74
2023/01/10 01:25:22;;;;;;;1.37;0.67;;;6.80;61.00;;;;;;20475;6853;312050;-74
2023/01/10 01:27:48;;;;;;;0.87;0.77;;;7.10;60.50;;;;;;20690;6853;121762;-74
2023/01/10 01:30:14;;;;;;;1.00;0.70;;;7.10;60.50;;;;;;20683;6854;144183;-74
2023/01/10 01:32:40;;;;;;;0.70;0.70;;;7.00;60.70;;;;;;20700;6854;121307;-74
2023/01/10 01:35:05;;;;;;;0.87;0.70;;;6.80;61.00;;;;;;20489;6854;278397;-74
2023/01/10 01:37:32;;;;;;;1.03;0.70;;;7.30;59.60;;;;;;20479;6854;308476;-73
2023/01/10 01:39:57;;;;;;;0.80;0.80;;;7.30;59.60;;;;;;20482;6854;337627;-74
2023/01/10 01:42:30;;;;;;;0.80;0.80;;;7.60;58.50;;;;;;20473;6854;305598;-74
2023/01/10 01:45:15;;;;;;;0.90;0.80;;;7.80;57.50;;;;;;20689;6854;116982;-74
2023/01/10 01:47:48;;;;;;;0.50;0.50;;;7.60;57.70;;;;;;20687;6854;118368;-74
2023/01/10 01:50:13;;;;;;;0.63;0.63;;;7.30;58.50;;;;;;20673;6854;120947;-74
2023/01/10 01:52:39;;;;;;;0.80;0.70;;;7.00;59.40;;;;;;20480;6854;301942;-74
2023/01/10 01:55:05;;;;;;;0.70;0.70;;;7.10;59.20;;;;;;20482;6854;308872;-74
2023/01/10 01:57:31;;;;;;;0.77;0.77;;;7.30;58.40;;;;;;20685;6854;117592;-74
2023/01/10 01:59:56;;;;;;;0.53;0.53;;;7.30;59.00;;;;;;20685;6854;119066;-74
2023/01/10 02:02:29;;;;;;;0.60;0.60;;;6.90;60.00;;;;;;20675;6854;117504;-74
2023/01/10 02:04:55;;;;;;;0.70;0.70;;;6.90;59.70;;;;;;20681;6853;118020;-74
2023/01/10 02:07:20;;;;;;;0.70;0.70;;;6.70;60.20;;;;;;20467;6853;308925;-74
2023/01/10 02:09:49;;;;;;;0.67;0.67;;;6.90;60.00;;;;;;20688;6853;117478;-74
2023/01/10 02:12:14;;;;;;;0.83;0.63;;;6.90;59.80;;;;;;20663;6853;126058;-74
2023/01/10 02:14:40;;;;;;;0.75;0.60;;;6.80;60.20;;;;;;20678;6853;117091;-74
2023/01/10 02:17:05;;;;;;;2.40;0.50;;;6.70;60.60;;;;;;20663;6853;118336;-74
2023/01/10 02:19:44;;;;;;;0.70;0.70;;;6.60;61.00;;;;;;20451;6853;307861;-74
2023/01/10 02:22:40;;;;;;;1.00;0.70;;;6.70;60.80;;;;;;20425;6853;307218;-74
2023/01/10 02:25:25;;;;;;;0.90;0.80;;;7.10;60.00;;;;;;20678;6853;120662;-74
2023/01/10 02:28:18;;;;;;;0.80;0.80;;;7.10;59.80;;;;;;20687;6853;117142;-75
2023/01/10 02:31:06;;;;;;;1.13;0.60;;;6.80;60.20;;;;;;20689;6853;117532;-75
2023/01/10 02:33:42;;;;;;;0.70;0.70;;;6.50;61.50;;;;;;20678;6853;117597;-75
2023/01/10 02:36:28;;;;;;;1.13;0.70;;;6.50;61.50;;;;;;20641;6853;123020;-75
2023/01/10 02:38:56;;;;;;;0.63;0.63;;;6.30;61.80;;;;;;20439;6853;116986;-75
2023/01/10 02:41:22;;;;;;;0.90;0.90;;;6.30;62.30;;;;;;20462;6854;278861;-75
2023/01/10 02:43:47;;;;;;;0.70;0.70;;;6.50;62.10;;;;;;20643;6854;117202;-75
2023/01/10 02:46:14;;;;;;;0.70;0.70;;;6.50;62.00;;;;;;20648;6854;117571;-74
2023/01/10 02:48:39;;;;;;;1.77;0.90;;;6.50;62.00;;;;;;20621;6854;118232;-75
2023/01/10 02:51:18;;;;;;;1.05;0.90;;;6.40;62.40;;;;;;20627;6854;117189;-75
2023/01/10 02:53:44;;;;;;;1.53;0.60;;;6.30;62.70;;;;;;20650;6854;121808;-74
2023/01/10 02:56:39;;;;;;;0.70;0.70;;;6.30;63.10;;;;;;20629;6854;117927;-74
2023/01/10 02:59:25;;;;;;;1.10;0.90;;;6.20;63.40;;;;;;20182;6854;307282;-75
2023/01/10 03:01:50;;;;;;;0.83;0.80;;;6.60;62.80;;;;;;20673;6854;117212;-74
2023/01/10 03:04:29;;;;;;;0.80;0.80;;;6.60;62.10;;;;;;20575;6854;120309;-75
2023/01/10 03:07:08;;;;;;;0.70;0.70;;;6.50;62.40;;;;;;20661;6854;116893;-75
2023/01/10 03:09:47;;;;;;;0.80;0.80;;;6.40;62.90;;;;;;20443;6854;338025;-74
2023/01/10 03:12:13;;;;;;;0.70;0.70;;;6.70;62.20;;;;;;20589;6854;121226;-73
2023/01/10 03:14:39;;;;;;;0.90;0.90;;;6.70;62.20;;;;;;20439;6852;307579;-74
2023/01/10 03:17:04;;;;;;;1.00;0.70;;;6.90;61.90;;;;;;20458;6853;337141;-74
2023/01/10 03:19:30;;;;;;;1.52;0.70;;;7.20;60.90;;;;;;20666;6853;118403;-73
2023/01/10 03:21:57;;;;;;;1.48;0.50;;;7.00;61.70;;;;;;20657;6853;122332;-74
2023/01/10 03:24:26;;;;;;;0.97;0.80;;;7.00;61.20;;;;;;20444;6853;294901;-74
2023/01/10 03:26:51;;;;;;;0.70;0.70;;;7.10;61.00;;;;;;20645;6853;117149;-74
2023/01/10 03:29:20;;;;;;;1.42;0.80;;;7.10;61.00;;;;;;20445;6853;311267;-74
2023/01/10 03:31:51;;;;;;;0.80;0.80;;;7.30;60.70;;;;;;20443;6853;342641;-73
2023/01/10 03:34:17;;;;;;;1.03;0.80;;;7.60;59.90;;;;;;20453;6853;403228;-73
2023/01/10 03:36:49;;;;;;;0.70;0.70;;;7.80;58.90;;;;;;20470;6853;340852;-73
2023/01/10 03:39:21;;;;;;;0.60;0.60;;;8.00;58.30;;;;;;20667;6853;120162;-74
2023/01/10 03:41:46;;;;;;;1.10;0.70;;;7.80;58.50;;;;;;20642;6853;119290;-73
2023/01/10 03:47:08;;;;;;;0.63;0.63;;;7.10;60.20;;;;;;20682;6853;117561;-75
2023/01/10 03:49:33;;;;;;;1.83;0.63;;;6.90;60.90;;;;;;20663;6853;116952;-75
2023/01/10 03:51:59;;;;;;;0.68;0.68;;;6.70;61.50;;;;;;20429;6853;278515;-75
2023/01/10 03:54:24;;;;;;;0.70;0.60;;;6.90;61.40;;;;;;20683;6854;117767;-74
2023/01/10 03:56:50;;;;;;;0.57;0.53;;;6.90;61.00;;;;;;20678;6854;117407;-73
2023/01/10 03:59:16;;;;;;;0.60;0.60;;;7.00;61.20;;;;;;20471;6854;308060;-73
2023/01/10 04:01:42;;;;;;;0.20;0.20;;;6.90;61.10;;;;;;20664;6854;118269;-74
2023/01/10 04:04:08;;;;;;;0.20;0.20;;;6.80;62.00;;;;;;20667;6854;123484;-74
2023/01/10 04:06:34;;;;;;;0.30;0.30;;;6.80;61.40;;;;;;20677;6854;122021;-74
2023/01/10 04:09:00;;;;;;;0.30;0.30;;;6.60;62.30;;;;;;20675;6854;117415;-74
2023/01/10 04:11:25;;;;;;;0.30;0.30;;;6.60;62.30;;;;;;20461;6854;311460;-74
2023/01/10 04:13:51;;;;;;;0.30;0.30;;;6.80;61.90;;;;;;20673;6854;116979;-74
2023/01/10 04:16:16;;;;;;;0.20;0.20;;;6.80;61.40;;;;;;20658;6854;149474;-74
2023/01/10 04:18:42;;;;;;;0.30;0.30;;;6.70;61.70;;;;;;20464;6854;285884;-74
2023/01/10 04:21:08;;;;;;;0.20;0.20;;;6.90;61.30;;;;;;20459;6854;298922;-72
2023/01/10 04:23:33;;;;;;;0.20;0.20;;;7.20;60.10;;;;;;20469;6854;309214;-72
2023/01/10 04:25:59;;;;;;;0.20;0.20;;;7.50;59.00;;;;;;20649;6852;118033;-73
2023/01/10 04:28:25;;;;;;;0.20;0.20;;;7.40;59.50;;;;;;20460;6853;282795;-71
2023/01/10 04:30:51;;;;;;;0.20;0.20;;;7.30;58.90;;;;;;20455;6853;337560;-72
2023/01/10 04:33:16;;;;;;;0.30;0.30;;;7.60;58.30;;;;;;20473;6853;280326;-71
2023/01/10 04:35:48;;;;;;;0.60;0.40;;;7.70;57.60;;;;;;20426;6853;278114;-71
2023/01/10 04:38:14;;;;;;;0.30;0.30;;;7.90;56.80;;;;;;20436;6853;309274;-72
2023/01/10 04:40:40;;;;;;;0.30;0.30;;;7.90;56.80;;;;;;20458;6853;318108;-72
2023/01/10 04:43:06;;;;;;;0.30;0.30;;;8.00;56.30;;;;;;20466;6853;298327;-72
2023/01/10 04:45:31;;;;;;;0.30;0.30;;;7.90;56.10;;;;;;20684;6853;117677;-73
2023/01/10 04:47:59;;;;;;;0.20;0.20;;;7.20;57.60;;;;;;20683;6853;123479;-72
2023/01/10 04:50:23;;;;;;;0.30;0.30;;;7.20;57.60;;;;;;20378;6853;337996;-73
2023/01/10 04:52:49;;;;;;;0.30;0.20;;;7.20;57.80;;;;;;20456;6853;307168;-72
2023/01/10 04:55:15;;;;;;;0.37;0.30;;;7.30;57.20;;;;;;20463;6853;316916;-72
2023/01/10 04:57:41;;;;;;;0.40;0.40;;;7.20;56.70;;;;;;20686;6853;118193;-72
2023/01/10 05:00:07;;;;;;;0.50;0.30;;;7.20;56.70;;;;;;20419;6853;283479;-71
2023/01/10 05:02:32;;;;;;;0.83;0.50;;;7.20;56.90;;;;;;20449;6853;281975;-73
2023/01/10 05:04:58;;;;;;;0.50;0.50;;;7.30;56.60;;;;;;20462;6854;312054;-72
2023/01/10 05:07:24;;;;;;;0.45;0.45;;;7.30;56.70;;;;;;20686;6854;118596;-73
2023/01/10 05:09:50;;;;;;;0.33;0.33;;;7.20;56.50;;;;;;20657;6854;117182;-72
2023/01/10 05:12:15;;;;;;;0.30;0.30;;;6.90;57.40;;;;;;20435;6854;309085;-73
2023/01/10 05:14:41;;;;;;;0.40;0.40;;;7.00;57.90;;;;;;20682;6854;121128;-72
2023/01/10 05:17:06;;;;;;;0.97;0.50;;;6.80;57.90;;;;;;20684;6854;119035;-72
2023/01/10 05:19:32;;;;;;;2.80;0.60;;;6.60;58.60;;;;;;20682;6854;118697;-74
2023/01/10 05:21:58;;;;;;;0.80;0.80;;;6.40;59.30;;;;;;20672;6854;117173;-74
2023/01/10 05:24:23;;;;;;;2.20;0.93;;;6.20;59.90;;;;;;20444;6854;310861;-72
2023/01/10 05:26:49;;;;;;;2.43;0.70;;;6.40;60.10;;;;;;20474;6854;321857;-73
2023/01/10 05:29:14;;;;;;;2.22;1.00;;;6.80;59.30;;;;;;20469;6854;308187;-73
2023/01/10 05:31:40;;;;;;;1.70;1.15;;;7.10;58.60;;;;;;20676;6854;121012;-72
2023/01/10 05:34:07;;;;;;;2.10;1.10;;;7.10;58.70;;;;;;20433;6854;313051;-71
2023/01/10 05:36:32;;;;;;;0.95;0.90;;;7.10;58.60;;;;;;20450;6854;338042;-71
2023/01/10 05:38:57;;;;;;;1.00;0.70;;;7.40;58.30;;;;;;20469;6852;304101;-70
2023/01/10 05:41:23;;;;;;;1.60;1.00;;;7.60;57.60;;;;;;20458;6853;308301;-70
2023/01/10 05:43:48;;;;;;;1.85;0.85;;;7.70;57.00;;;;;;20686;6853;117967;-73
2023/01/10 05:46:14;;;;;;;1.37;1.00;;;7.60;57.30;;;;;;20668;6853;117566;-71
2023/01/10 05:48:41;;;;;;;2.10;1.20;;;7.20;58.00;;;;;;20463;6853;338027;-72
2023/01/10 05:51:06;;;;;;;1.60;0.90;;;7.20;58.30;;;;;;20671;6853;117475;-73
2023/01/10 05:53:32;;;;;;;2.37;1.20;;;7.10;58.50;;;;;;20473;6853;308677;-72
2023/01/10 05:55:57;;;;;;;1.67;0.93;;;7.20;58.30;;;;;;20693;6853;118361;-72
2023/01/10 05:58:24;;;;;;;2.43;1.10;;;7.20;58.20;;;;;;20468;6853;288667;-73
2023/01/10 06:00:49;;;;;;;2.30;1.20;;;7.20;58.20;;;;;;20667;6853;117668;-73
2023/01/10 06:03:15;;;;;;;2.57;1.47;;;7.20;58.50;;;;;;20446;6853;308090;-73
2023/01/10 06:05:40;;;;;;;2.25;1.20;;;7.30;58.50;;;;;;20676;6853;118452;-74
2023/01/10 06:08:06;;;;;;;2.45;1.25;;;7.20;58.50;;;;;;20438;6853;320483;-77
2023/01/10 06:10:31;;;;;;;3.70;1.60;;;7.30;58.20;;;;;;20442;6853;283774;-73
2023/01/10 06:12:57;;;;;;;3.33;1.40;;;7.60;57.70;;;;;;20454;6853;304698;-74
2023/01/10 06:15:22;;;;;;;1.40;1.00;;;7.80;57.10;;;;;;20651;6854;117233;-73
2023/01/10 06:17:48;;;;;;;2.62;1.70;;;7.60;57.20;;;;;;20455;6854;337698;-73
2023/01/10 06:20:14;;;;;;;3.60;1.70;;;7.60;57.40;;;;;;20445;6854;313160;-72
2023/01/10 06:22:40;;;;;;;2.53;1.73;;;7.80;57.10;;;;;;20454;6854;309245;-73
2023/01/10 06:25:05;;;;;;;3.78;1.75;;;7.90;56.60;;;;;;20675;6854;117196;-72
2023/01/10 06:27:31;;;;;;;5.97;1.60;;;7.70;56.70;;;;;;20671;6854;117112;-72
2023/01/10 06:29:58;;;;;;;6.93;2.90;;;7.30;57.30;;;;;;20681;6854;123321;-72
2023/01/10 06:32:23;;;;;;;6.57;3.30;;;7.00;58.00;;;;;;20437;6854;308509;-73
2023/01/10 06:34:48;;;;;;;5.33;2.67;;;6.90;57.90;;;;;;20687;6854;118099;-72
2023/01/10 06:37:14;;;;;;;4.33;2.17;;;6.60;58.50;;;;;;20686;6854;117482;-73
2023/01/10 06:39:40;;;;;;;5.00;2.42;;;6.60;58.50;;;;;;20466;6854;307329;-73
2023/01/10 06:42:05;;;;;;;5.53;2.63;;;6.60;58.40;;;;;;20652;6854;118329;-73
2023/01/10 06:44:31;;;;;;;5.62;2.12;;;6.60;58.40;;;;;;20462;6854;332179;-73
2023/01/10 06:47:33;;;;;;;4.30;1.57;;;6.70;58.20;;;;;;20664;6854;118534;-73
2023/01/10 06:50:00;;;;;;;3.87;1.90;;;6.80;58.70;;;;;;20386;6852;278305;-73
2023/01/10 06:52:25;;;;;;;3.77;2.10;;;6.80;58.70;;;;;;20461;6853;283147;-74
2023/01/10 06:54:52;;;;;;;4.90;2.10;;;7.10;58.30;;;;;;20473;6853;279464;-73
2023/01/10 06:57:16;;;;;;;3.50;2.05;;;7.30;57.60;;;;;;20469;6853;279660;-73
2023/01/10 06:59:42;;;;;;;5.80;2.30;;;7.50;57.10;;;;;;20453;6853;337018;-72
2023/01/10 07:02:09;;;;;;;5.83;2.40;;;7.60;56.60;;;;;;20649;6853;119434;-74
2023/01/10 07:04:34;;;;;;;3.40;2.05;;;7.50;57.10;;;;;;20444;6853;279002;-73
2023/01/10 07:07:00;;;;;;;4.03;2.12;;;7.50;58.80;;;;;;20688;6853;123132;-73
2023/01/10 07:09:26;;;;;;;5.30;2.17;;;7.40;59.00;;;;;;20632;6853;119219;-73
2023/01/10 07:11:52;;;;;;;3.20;2.30;;;7.20;59.70;;;;;;20673;6853;117622;-73
2023/01/10 07:14:17;;;;;;;4.93;2.12;;;7.00;60.30;;;;;;20663;6853;117885;-74
2023/01/10 07:16:44;;;;;;;3.97;2.60;;;6.80;61.00;;;;;;20474;6853;278801;-74
2023/01/10 07:19:12;;;;;;;2.13;2.00;;;7.00;61.10;;;;;;20684;6853;118320;-73
2023/01/10 07:21:36;;;;;;;4.43;2.50;;;7.10;61.00;;;;;;20450;6853;309002;-72
2023/01/10 07:24:02;;;;;;;6.77;2.53;;;7.50;61.20;;;;;;20667;6853;118362;-71
2023/01/10 07:26:28;;;;;;;4.63;2.20;;;7.50;60.80;;;;;;20467;6853;278992;-73
2023/01/10 07:28:53;;;;;;;2.33;1.80;;;7.70;60.40;;;;;;20670;6854;116945;-73
2023/01/10 07:31:19;;;;;;;3.73;2.57;;;7.70;60.30;;;;;;20655;6854;118368;-73
2023/01/10 07:33:44;;;;;;;4.70;1.98;;;7.60;60.50;;;;;;20675;6854;117880;-73
2023/01/10 07:36:10;;;;;;;4.63;2.07;;;7.40;60.90;;;;;;20661;6854;118402;-74
2023/01/10 07:38:35;;;;;;;7.10;2.67;;;7.30;61.20;;;;;;20457;6854;278261;-73
2023/01/10 07:41:01;;;;;;;6.12;2.67;;;7.50;61.70;;;;;;20454;6854;307655;-73
2023/01/10 07:43:26;;;;;;;2.97;2.33;;;7.80;60.70;;;;;;20675;6854;120299;-72
2023/01/10 07:45:52;;;;;;;4.93;2.17;;;7.90;60.50;;;;;;20668;6854;116930;-73
2023/01/10 07:48:17;;;;;;;3.33;2.07;;;7.70;60.90;;;;;;20663;6854;120906;-74
2023/01/10 07:50:43;;;;;;;4.37;2.05;;;7.60;61.40;;;;;;20666;6854;117079;-74
2023/01/10 07:53:09;;;;;;;3.87;2.30;;;7.70;62.10;;;;;;20462;6854;307847;-74
2023/01/10 07:55:37;;;;;;;3.92;2.50;;;7.70;61.50;;;;;;20458;6854;337396;-74
2023/01/10 07:58:00;;;;;;;4.82;2.42;;;8.10;60.60;;;;;;20432;6854;308637;-75
2023/01/10 08:00:26;;;;;;;6.15;2.20;;;8.40;59.90;;;;;;20672;6852;119024;-72
2023/01/10 08:02:52;;;;;;;4.50;2.23;;;8.30;59.50;;;;;;20663;6853;122631;-72
2023/01/10 08:05:17;;;;;;;3.65;2.50;;;8.10;60.00;;;;;;20456;6853;320833;-72
2023/01/10 08:07:43;;;;;;;4.07;2.17;;;8.20;60.30;;;;;;20676;6853;120140;-72
2023/01/10 08:10:09;;;;;;;3.60;2.00;;;8.30;59.60;;;;;;20442;6853;308646;-73
2023/01/10 08:12:36;;;;;;;3.73;2.37;;;8.30;59.60;;;;;;20678;6853;118975;-72
2023/01/10 08:15:01;;;;;;;3.47;2.40;;;8.30;59.60;;;;;;20459;6853;307867;-72
2023/01/10 08:17:27;;;;;;;6.50;2.97;;;8.40;59.10;;;;;;20682;6853;117132;-72
2023/01/10 08:19:52;;;;;;;6.80;2.78;;;8.40;59.20;;;;;;20655;6853;118235;-72
2023/01/10 08:22:18;;;;;;;5.05;3.25;;;8.20;59.60;;;;;;20441;6853;338012;-72
2023/01/10 08:24:43;;;;;;;5.50;2.87;;;8.20;59.00;;;;;;20463;6853;283124;-73
2023/01/10 08:27:09;;;;;;;2.90;2.30;;;8.50;57.80;;;;;;20462;6853;283749;-72
2023/01/10 08:29:34;;;;;;;4.03;2.53;;;8.80;57.70;;;;;;20472;6853;278286;-73
2023/01/10 08:32:00;;;;;;;4.30;2.47;;;9.00;57.60;;;;;;20432;6853;329668;-72
2023/01/10 08:34:26;;;;;;;5.50;3.03;;;9.20;57.30;;;;;;20468;6853;336930;-72
2023/01/10 08:36:51;;;;;;;3.80;2.40;;;9.30;56.20;;;;;;20670;6853;120659;-72
2023/01/10 08:39:19;;;;;;;3.58;3.28;;;9.00;57.00;;;;;;20460;6854;307880;-72
2023/01/10 08:41:43;;;;;;;2.90;2.60;;;9.00;57.00;;;;;;20666;6854;117161;-72
2023/01/10 08:44:11;;;;;;;3.87;2.40;;;8.90;57.50;;;;;;20660;6854;118830;-72
2023/01/10 08:46:34;;;;;;;4.30;2.28;;;8.70;58.30;;;;;;20675;6854;117427;-72
2023/01/10 08:49:00;;;;;;;4.40;2.57;;;8.50;58.80;;;;;;20466;6854;308067;-73
2023/01/10 08:51:25;;;;;;;6.63;2.70;;;8.50;58.70;;;;;;20673;6854;117015;-75
2023/01/10 08:53:52;;;;;;;2.77;2.33;;;8.40;59.00;;;;;;20682;6854;117463;-75
2023/01/10 08:56:17;;;;;;;5.10;2.93;;;8.30;58.90;;;;;;20444;6854;283135;-75
2023/01/10 08:58:48;;;;;;;4.40;2.70;;;8.50;58.90;;;;;;20679;6854;117813;-80
2023/01/10 09:01:14;;;;;;;4.50;2.90;;;8.50;59.10;;;;;;20459;6854;307697;-74
2023/01/10 09:03:40;;;;;;;4.50;2.43;;;8.70;58.80;;;;;;20663;6854;117488;-74
2023/01/10 09:06:05;;;;;;;5.70;2.73;;;8.70;58.60;;;;;;20450;6854;279240;-74
2023/01/10 09:08:31;;;;;;;3.93;2.53;;;8.90;57.90;;;;;;20466;6854;281223;-74
2023/01/10 09:10:59;;;;;;;4.00;2.50;;;9.10;57.00;;;;;;20453;6854;307829;-74
2023/01/10 09:13:25;;;;;;;4.53;2.70;;;9.40;56.80;;;;;;20463;6852;318988;-73
2023/01/10 09:15:51;;;;;;;2.50;2.30;;;9.50;56.00;;;;;;20678;6853;117121;-73
2023/01/10 09:18:17;;;;;;;5.07;2.55;;;9.40;56.20;;;;;;20445;6853;312411;-75
2023/01/10 09:20:44;;;;;;;5.10;2.30;;;9.30;56.00;;;;;;20675;6853;121072;-76
2023/01/10 09:23:09;;;;;;;5.33;2.20;;;9.30;56.00;;;;;;20675;6853;121172;-76
2023/01/10 09:25:35;;;;;;;5.05;2.20;;;8.70;57.10;;;;;;20667;6853;118315;-76
2023/01/10 09:28:01;;;;;;;5.50;2.30;;;8.70;57.10;;;;;;20656;6853;117643;-77
2023/01/10 09:30:26;;;;;;;4.33;2.27;;;8.50;57.80;;;;;;20675;6853;118965;-74
2023/01/10 09:32:52;;;;;;;3.75;2.47;;;8.30;58.50;;;;;;20455;6853;307854;-72
2023/01/10 09:35:17;;;;;;;3.63;2.20;;;8.50;58.10;;;;;;20674;6853;117599;-73
2023/01/10 09:37:43;;;;;;;3.60;2.07;;;8.60;58.20;;;;;;20461;6853;309005;-73
2023/01/10 09:40:09;;;;;;;3.65;2.17;;;8.70;57.40;;;;;;20658;6853;121230;-74
2023/01/10 09:42:41;;;;;;;4.30;2.30;;;8.70;56.90;;;;;;20437;6853;329957;-74
2023/01/10 09:45:26;;;;;;;3.67;1.87;;;8.90;58.00;;;;;;20434;6853;278340;-73
2023/01/10 09:47:55;;;;;;;4.93;2.30;;;9.50;55.30;;;;;;20447;6853;278699;-73
2023/01/10 09:50:38;;;;;;;3.33;2.10;;;9.60;54.30;;;;;;20426;6854;334001;-74
2023/01/10 09:53:04;;;;;;;3.90;2.28;;;9.60;54.30;;;;;;20285;6854;313041;-73
2023/01/10 09:55:32;;;;;;;4.35;2.30;;;9.80;54.10;;;;;;20426;6854;337766;-73
2023/01/10 09:57:55;;;;;;;4.50;2.20;;;9.80;53.30;;;;;;20354;6854;308251;-76
2023/01/10 10:00:24;;;;;;;2.08;1.70;;;9.90;53.10;;;;;;20549;6854;121213;-75
2023/01/10 10:02:52;;;;;;;2.57;1.90;;;9.70;53.70;;;;;;20651;6854;117459;-73
2023/01/10 10:05:24;;;;;;;5.47;1.80;;;9.30;54.70;;;;;;20637;6854;119364;-73
2023/01/10 10:07:47;;;;;;;5.27;2.03;;;9.00;55.70;;;;;;20446;6854;308963;-74
2023/01/10 10:10:15;;;;;;;2.30;2.07;;;9.00;54.30;;;;;;20634;6854;127169;-74
2023/01/10 10:13:14;;;;;;;4.28;2.08;;;9.00;55.00;;;;;;20473;6854;308555;-74
2023/01/10 10:15:50;;;;;;;3.23;2.03;;;9.20;54.70;;;;;;20465;6854;307705;-73
2023/01/10 10:18:39;;;;;;;3.07;1.87;;;9.50;53.70;;;;;;20663;6854;127274;-73
2023/01/10 10:21:08;;;;;;;2.87;1.60;;;9.40;54.00;;;;;;20692;6854;117396;-74
2023/01/10 10:23:39;;;;;;;3.23;1.90;;;9.10;54.70;;;;;;20445;6852;337718;-73
2023/01/10 10:26:21;;;;;;;4.53;1.77;;;9.20;54.00;;;;;;20600;6853;121338;-73
2023/01/10 10:29:10;;;;;;;4.05;1.80;;;9.20;54.40;;;;;;20452;6853;278886;-72
2023/01/10 10:32:05;;;;;;;4.43;1.90;;;9.30;53.50;;;;;;20456;6853;311422;-73
2023/01/10 10:34:37;;;;;;;5.20;2.03;;;9.60;52.90;;;;;;20480;6853;281512;-74
2023/01/10 10:37:25;;;;;;;3.78;1.92;;;9.80;51.80;;;;;;20491;6853;312165;-75
2023/01/10 10:39:54;;;;;;;3.93;2.07;;;10.00;50.60;;;;;;20486;6853;282885;-75
2023/01/10 10:42:19;;;;;;;2.70;1.60;;;10.10;49.90;;;;;;20456;6853;309922;-73
2023/01/10 10:44:45;;;;;;;2.60;1.70;;;10.30;49.80;;;;;;20702;6853;121576;-74
2023/01/10 10:47:14;;;;;;;3.70;1.80;;;10.10;50.40;;;;;;20465;6853;313519;-75
2023/01/10 10:49:59;;;;;;;3.17;1.67;;;10.10;50.20;;;;;;20680;6853;117324;-73
2023/01/10 10:52:25;;;;;;;3.83;1.80;;;9.90;51.80;;;;;;20313;6853;313036;-73
2023/01/10 10:54:50;;;;;;;3.70;1.60;;;9.90;50.80;;;;;;20677;6853;117211;-74
2023/01/10 10:57:17;;;;;;;3.15;1.83;;;9.80;50.80;;;;;;20481;6853;279055;-74
2023/01/10 10:59:43;;;;;;;3.53;1.80;;;9.90;50.20;;;;;;20469;6853;308506;-74
2023/01/10 11:02:11;;;;;;;4.07;1.70;;;10.00;49.20;;;;;;20666;6854;118925;-72
2023/01/10 11:04:38;;;;;;;2.77;1.53;;;9.60;51.60;;;;;;20635;6854;117561;-74
2023/01/10 11:07:06;;;;;;;3.87;1.80;;;9.60;51.50;;;;;;20487;6854;308596;-75
2023/01/10 11:12:18;;;;;;;2.67;1.60;;;9.60;51.10;;;;;;20679;6854;147603;-74
2023/01/10 11:14:47;;;;;;;4.45;1.55;;;9.40;51.90;;;;;;20689;6854;118481;-75
2023/01/10 11:17:25;;;;;;;4.62;1.60;;;9.20;52.50;;;;;;20470;6854;302040;-77
2023/01/10 11:20:01;;;;;;;5.03;2.10;;;9.40;51.20;;;;;;20476;6854;311599;-75
2023/01/10 11:22:27;;;;;;;3.37;1.87;;;10.00;48.10;;;;;;20461;6854;312669;-75
2023/01/10 11:24:54;;;;;;;3.50;1.50;;;10.00;48.10;;;;;;20685;6854;117109;-75
2023/01/10 11:27:18;;;;;;;2.55;1.30;;;9.90;50.30;;;;;;20601;6854;118383;-74
2023/01/10 11:29:44;;;;;;;2.47;1.20;;;9.70;50.80;;;;;;20682;6854;118259;-75
2023/01/10 11:32:14;;;;;;;4.37;1.63;;;9.50;51.30;;;;;;20455;6854;308791;-73
2023/01/10 11:34:38;;;;;;;1.87;1.40;;;9.50;50.10;;;;;;20692;6854;117467;-74
2023/01/10 11:37:04;;;;;;;2.03;1.48;;;9.50;50.60;;;;;;20510;6852;308420;-77
2023/01/10 11:39:29;;;;;;;2.20;1.37;;;9.70;49.30;;;;;;20633;6853;116984;-75
2023/01/10 11:41:57;;;;;;;1.73;1.10;;;9.60;49.90;;;;;;20704;6853;117569;-73
2023/01/10 11:44:24;;;;;;;2.10;1.30;;;9.50;50.80;;;;;;20683;6853;117952;-74
2023/01/10 11:46:49;;;;;;;1.87;1.17;;;9.30;51.50;;;;;;20699;6853;120918;-76
2023/01/10 11:49:19;;;;;;;2.43;1.37;;;9.20;51.80;;;;;;20684;6853;121292;-74
2023/01/10 11:51:44;;;;;;;3.22;1.60;;;9.30;50.10;;;;;;20461;6853;337667;-76
2023/01/10 11:54:10;;;;;;;4.87;1.53;;;9.30;50.10;;;;;;20646;6853;120339;-76
2023/01/10 11:56:38;;;;;;;2.30;1.10;;;9.30;51.20;;;;;;20695;6853;117619;-75
2023/01/10 11:59:18;;;;;;;2.20;1.33;;;9.30;51.20;;;;;;20681;6853;71149;-75
2023/01/10 12:01:53;;;;;;;4.90;1.80;;;9.20;51.70;;;;;;20443;6853;308890;-72
2023/01/10 12:04:19;;;;;;;3.13;1.40;;;9.40;49.90;;;;;;20660;6853;117446;-73
2023/01/10 12:06:45;;;;;;;2.87;1.20;;;9.40;50.10;;;;;;20684;6853;117635;-77
2023/01/10 12:09:33;;;;;;;2.90;1.30;;;9.20;50.70;;;;;;20677;6853;117212;-78
2023/01/10 12:12:05;;;;;;;2.53;1.20;;;9.10;51.30;;;;;;20679;6853;117171;-77
2023/01/10 12:14:31;;;;;;;2.90;1.70;;;8.90;51.80;;;;;;20665;6854;117348;-76
2023/01/10 12:17:01;;;;;;;3.07;1.23;;;8.80;52.30;;;;;;20689;6854;117058;-76
2023/01/10 12:19:28;;;;;;;3.50;1.53;;;8.80;52.80;;;;;;20474;6854;279362;-75
2023/01/10 12:21:54;;;;;;;2.10;1.60;;;9.00;51.90;;;;;;20696;6854;117222;-74
2023/01/10 12:24:23;;;;;;;5.23;1.23;;;9.20;52.10;;;;;;20636;6853;116998;-79
2023/01/10 12:26:50;;;;;;;4.23;1.50;;;9.20;52.50;;;;;;20686;6854;117455;-75
2023/01/10 12:29:14;;;;;;;3.12;1.90;;;9.10;52.50;;;;;;20465;6854;284897;-76
2023/01/10 12:31:40;;;;;;;3.12;1.42;;;9.30;51.10;;;;;;20663;6854;123066;-75
2023/01/10 12:34:12;;;;;;;3.23;1.63;;;9.40;51.00;;;;;;20431;6854;342331;-76
2023/01/10 12:37:05;;;;;;;3.78;1.65;;;9.50;49.50;;;;;;20427;6854;309313;-76
2023/01/10 12:39:32;;;;;;;2.10;1.23;;;9.80;49.20;;;;;;20678;6854;117049;-76
2023/01/10 12:44:49;;;;;;;5.17;1.73;;;9.50;49.20;;;;;;20485;6854;307704;-74
2023/01/10 12:47:18;;;;;;;4.17;2.13;;;9.50;49.20;;;;;;20460;6852;341655;-75
2023/01/10 12:49:57;;;;;;;1.93;1.40;;;9.70;49.70;;;;;;20671;6853;117222;-75
2023/01/10 12:52:23;;;;;;;3.78;1.85;;;9.70;49.70;;;;;;20450;6853;335194;-75
2023/01/10 12:54:49;;;;;;;2.30;1.42;;;9.90;50.10;;;;;;20671;6853;120360;-75
2023/01/10 12:57:24;;;;;;;4.97;1.67;;;9.90;49.80;;;;;;20699;6853;120874;-75
2023/01/10 12:59:51;;;;;;;2.27;1.40;;;9.80;50.40;;;;;;20655;6853;123100;-75
2023/01/10 13:02:16;;;;;;;2.80;1.40;;;9.70;50.70;;;;;;20441;6853;282643;-76
2023/01/10 13:04:41;;;;;;;2.53;1.30;;;9.80;49.30;;;;;;20474;6853;279905;-75